Data for 11/18/2013

Time Sea-Level Adjusted Pressure Absolute Pressure Temperature Relative Humidity Dew Point   
(mb) (inHg) (mb) (inHg) (C) (F) (%) (C) (F)
00:05 1015 29.97 844 24.92 -1.3 29.6 49 -10.7 12.8
00:10 1015 29.97 844 24.92 -1.4 29.6 50 -10.6 12.9
00:15 1015 29.97 844 24.92 -1.4 29.4 50 -10.6 12.9
00:20 1015 29.97 844 24.92 -1.5 29.3 49 -10.8 12.6
00:25 1015 29.97 844 24.92 -1.4 29.4 50 -10.4 13.2
00:30 1015 29.97 844 24.92 -1.6 29.1 50 -10.7 12.8
00:35 1015 29.97 844 24.92 -1.5 29.3 50 -10.5 13.1
00:40 1015 29.97 844 24.92 -1.6 29.2 50 -10.6 12.9
00:45 1015 29.97 844 24.92 -1.6 29.1 51 -10.5 13.2
00:50 1015 29.97 844 24.92 -1.7 28.9 51 -10.6 12.9
00:55 1015 29.97 844 24.92 -1.7 28.9 51 -10.5 13
01:00 1015 29.97 844 24.92 -1.7 28.9 52 -10.4 13.2
01:05 1015 29.97 844 24.92 -1.9 28.5 52 -10.6 13
01:10 1015 29.97 844 24.92 -1.7 29 52 -10.4 13.3
01:15 1015 29.97 844 24.92 -2.2 28.1 54 -10.2 13.7
01:20 1015 29.97 844 24.92 -2.4 27.6 53 -10.8 12.6
01:25 1015 29.97 844 24.92 -2.1 28.3 53 -10.4 13.3
01:30 1015 29.97 844 24.92 -2.3 27.9 54 -10.4 13.3
01:35 1015 29.97 844 24.92 -2.8 27 56 -10.3 13.5
01:40 1015 29.97 844 24.92 -2.8 27 56 -10.4 13.2
01:45 1015 29.97 844 24.92 -2.6 27.4 55 -10.4 13.3
01:50 1014 29.94 844 24.92 -2.7 27.2 56 -10.4 13.3
01:55 1014 29.94 844 24.92 -2.6 27.4 55 -10.4 13.2
02:00 1014 29.94 844 24.92 -2.4 27.7 53 -10.8 12.5
02:05 1014 29.94 844 24.92 -2.2 28 54 -10.2 13.6
02:10 1015 29.97 844 24.92 -2.3 27.9 53 -10.6 13
02:15 1015 29.97 844 24.92 -2 28.4 53 -10.4 13.2
02:20 1015 29.97 844 24.92 -1.7 28.9 50 -10.8 12.6
02:25 1015 29.97 844 24.92 -1.1 30 48 -10.7 12.7
02:30 1015 29.97 844 24.92 -0.9 30.4 48 -10.5 13.1
02:35 1015 29.97 844 24.92 -1.1 30.1 52 -9.7 14.5
02:40 1015 29.97 844 24.92 -1.6 29.2 51 -10.5 13.1
02:45 1015 29.97 844 24.92 -1.6 29.1 54 -9.6 14.6
02:50 1015 29.97 844 24.92 -2.3 27.9 51 -11.1 12.1
02:55 1015 29.97 844 24.92 -0.8 30.6 46 -11 12.2
03:00 1015 29.97 844 24.92 -1 30.2 54 -9.3 15.3
03:05 1015 29.97 844 24.92 -1.6 29.2 50 -10.6 13
03:10 1015 29.97 844 24.92 -1.3 29.7 55 -9.1 15.6
03:15 1015 29.97 844 24.92 -2.7 27.1 57 -10.1 13.8
03:20 1015 29.97 844 24.92 -2.3 27.9 58 -9.5 14.8
03:25 1015 29.97 844 24.92 -2.9 26.8 60 -9.6 14.7
03:30 1015 29.97 844 24.92 -3.1 26.5 60 -9.7 14.6
03:35 1015 29.97 844 24.92 -2.6 27.3 57 -10 14
03:40 1015 29.97 844 24.92 -2.1 28.2 57 -9.6 14.7
03:45 1015 29.97 844 24.92 -2 28.4 54 -10.1 13.8
03:50 1015 29.97 844 24.92 -1.7 28.9 53 -10 14
03:55 1015 29.97 844 24.92 -1.7 29 54 -9.7 14.5
04:00 1015 29.97 844 24.92 -1.7 28.9 54 -9.7 14.5
04:05 1015 29.97 844 24.92 -1.8 28.8 52 -10.5 13.2
04:10 1015 29.97 844 24.92 -1 30.1 53 -9.4 15.1
04:15 1015 29.97 844 24.92 -1.3 29.7 50 -10.4 13.2
04:20 1015 29.97 844 24.92 -0.5 31 48 -10.2 13.7
04:25 1015 29.97 844 24.92 -0.9 30.4 53 -9.3 15.3
04:30 1015 29.97 844 24.92 -1.1 30.1 50 -10.3 13.4
04:35 1015 29.97 844 24.92 -1 30.2 49 -10.4 13.3
04:40 1015 29.97 844 24.92 -1.1 30.1 50 -10.3 13.4
04:45 1015 29.97 844 24.92 -1.4 29.5 52 -9.9 14.1
04:50 1015 29.97 844 24.92 -1.5 29.3 52 -10.2 13.6
04:55 1015 29.97 844 24.92 -1.8 28.8 52 -10.4 13.3
05:00 1015 29.97 844 24.92 -1.2 29.8 49 -10.5 13
05:05 1015 29.97 844 24.92 -1.1 30 49 -10.5 13.1
05:10 1015 29.97 844 24.92 -1.3 29.7 46 -11.6 11.2
05:15 1015 29.97 844 24.92 -1.3 29.6 51 -10.3 13.4
05:20 1015 29.97 844 24.92 -2 28.4 53 -10.3 13.4
05:25 1015 29.97 844 24.92 -2.5 27.6 52 -11.1 12
05:30 1015 29.97 844 24.92 -1.9 28.5 49 -11.2 11.9
05:35 1015 29.97 844 24.92 -1.9 28.7 51 -10.7 12.8
05:40 1015 29.97 844 24.92 -2.1 28.3 55 -9.9 14.1
05:45 1015 29.97 844 24.92 -2 28.4 56 -9.7 14.5
05:50 1015 29.97 844 24.92 -2.6 27.4 56 -10.2 13.7
05:55 1015 29.97 844 24.92 -2.7 27.1 52 -11.3 11.7
06:00 1015 29.97 844 24.92 -2.2 28.1 51 -11 12.2
06:05 1015 29.97 844 24.92 -2 28.4 50 -11.1 12
06:10 1015 29.97 844 24.92 -1.5 29.3 47 -11.3 11.7
06:15 1015 29.97 844 24.92 -1.5 29.3 49 -10.8 12.6
06:20 1015 29.97 844 24.92 -1.3 29.7 45 -11.8 10.7
06:25 1015 29.97 844 24.92 -0.6 30.9 44 -11.5 11.3
06:30 1015 29.97 844 24.92 -0.8 30.5 46 -11.1 11.9
06:35 1015 29.97 844 24.92 -1.3 29.6 47 -11.1 11.9
06:40 1015 29.97 844 24.92 -1.6 29.1 48 -11.3 11.6
06:45 1015 29.97 844 24.92 -2.1 28.2 52 -10.6 13
06:50 1015 29.97 844 24.92 -2.5 27.5 50 -11.4 11.4
06:55 1015 29.97 844 24.92 -2.2 28.1 50 -11.3 11.6
07:00 1015 29.97 844 24.92 -2 28.4 50 -11.2 11.9
07:05 1015 29.97 844 24.92 -1.8 28.8 48 -11.5 11.4
07:10 1015 29.97 844 24.92 -1.7 28.9 49 -11 12.2
07:15 1015 29.97 844 24.92 -1.8 28.7 48 -11.5 11.3
07:20 1015 29.97 844 24.92 -1.7 29 47 -11.7 11
07:25 1015 29.97 844 24.92 -1.4 29.4 48 -11.1 11.9
07:30 1015 29.97 844 24.92 -1.7 29 47 -11.5 11.3
07:35 1015 29.97 844 24.92 -1.2 29.9 44 -11.8 10.7
07:40 1015 29.97 844 24.92 -1.1 30 44 -11.8 10.7
07:45 1015 29.97 844 24.92 -1.1 30.1 46 -11.4 11.5
07:50 1015 29.97 844 24.92 -1.7 29 47 -11.4 11.4
07:55 1015 29.97 844 24.92 -1.8 28.8 45 -12.1 10.3
08:00 1015 29.97 844 24.92 -1.2 29.9 45 -11.7 11
08:05 1015 29.97 844 24.92 -0.9 30.4 41 -12.4 9.6
08:10 1015 29.97 844 24.92 -0.4 31.2 42 -11.9 10.5
08:15 1015 29.97 844 24.92 -0.7 30.8 43 -11.7 10.9
08:20 1015 29.97 844 24.92 -0.8 30.5 43 -12 10.5
08:25 1015 29.97 844 24.92 -0.9 30.4 45 -11.5 11.3
08:30 1015 29.97 844 24.92 -1 30.2 44 -11.7 11
08:35 1015 29.97 844 24.92 -0.8 30.5 44 -11.6 11.1
08:40 1015 29.97 844 24.92 -0.8 30.6 44 -11.6 11.1
08:45 1015 29.97 844 24.92 -0.4 31.3 41 -12 10.4
08:50 1015 29.97 844 24.92 0.3 32.5 40 -11.9 10.5
08:55 1015 29.97 844 24.92 0.4 32.7 39 -12 10.4
09:00 1015 29.97 844 24.92 1 33.8 36 -12.3 9.8
09:05 1015 29.97 844 24.92 1.5 34.7 36 -11.9 10.5
09:10 1015 29.97 844 24.92 1.6 34.9 37 -11.5 11.3
09:15 1015 29.97 844 24.92 1.6 34.8 37 -11.5 11.4
09:20 1015 29.97 844 24.92 1.8 35.3 36 -11.8 10.7
09:25 1015 29.97 844 24.92 2 35.6 37 -11.4 11.5
09:30 1015 29.97 844 24.92 1.9 35.4 38 -11.2 11.9
09:35 1015 29.97 844 24.92 1.3 34.4 38 -11.4 11.5
09:40 1015 29.97 844 24.92 1.5 34.6 38 -11.3 11.7
09:45 1015 29.97 844 24.92 1.2 34.2 40 -11.1 12.1
09:50 1015 29.97 845 24.95 1.8 35.3 38 -11.1 12.1
09:55 1016 30 845 24.95 2.1 35.7 40 -10.3 13.4
10:00 1016 30 845 24.95 2.2 36 39 -10.4 13.4
10:05 1016 30 845 24.95 3 37.3 38 -10.1 13.9
10:10 1016 30 845 24.95 3.2 37.8 38 -9.9 14.1
10:15 1016 30 845 24.95 3.2 37.7 40 -9.3 15.3
10:20 1016 30 845 24.95 3.2 37.8 38 -9.9 14.3
10:25 1016 30 845 24.95 3.5 38.3 34 -10.9 12.3
10:30 1016 30 845 24.95 4.2 39.5 34 -10.4 13.3
10:35 1016 30 845 24.95 4.2 39.6 33 -10.8 12.6
10:40 1016 30 845 24.95 4.2 39.5 33 -10.6 12.9
10:45 1016 30 845 24.95 4.5 40.1 32 -10.7 12.7
10:50 1016 30 845 24.95 4.7 40.5 33 -10.2 13.7
10:55 1016 30 845 24.95 4.7 40.5 33 -10.4 13.3
11:00 1016 30 845 24.95 4.8 40.6 33 -10 13.9
11:05 1016 30 845 24.95 4.8 40.7 33 -10 14.1
11:10 1016 30 846 24.98 5 41 34 -9.7 14.5
11:15 1016 30 846 24.98 5.3 41.5 34 -9.3 15.2
11:20 1016 30 846 24.98 5.2 41.4 34 -9.5 14.9
11:25 1017 30.03 846 24.98 5.5 41.9 34 -9.3 15.3
11:30 1017 30.03 846 24.98 5.8 42.4 34 -9.1 15.7
11:35 1017 30.03 846 24.98 6 42.8 34 -8.9 16
11:40 1016 30 846 24.98 6.2 43.1 34 -8.6 16.5
11:45 1016 30 846 24.98 6.4 43.6 33 -8.5 16.6
11:50 1016 30 845 24.95 7 44.5 33 -8.2 17.3
11:55 1016 30 845 24.95 7.1 44.8 35 -7.4 18.8
12:00 1016 30 845 24.95 6.8 44.2 33 -8.4 16.9
12:05 1016 30 845 24.95 7.2 45 32 -8.4 16.9
12:10 1016 30 845 24.95 7.5 45.6 31 -8.3 17
12:15 1016 30 845 24.95 7.6 45.6 32 -8.2 17.3
12:20 1016 30 845 24.95 8 46.3 30 -8.6 16.5
12:25 1016 30 845 24.95 8.3 46.9 29 -8.6 16.5
12:30 1016 30 845 24.95 8.2 46.8 29 -8.9 16
12:35 1016 30 845 24.95 8.6 47.4 28 -8.7 16.3
12:40 1016 30 845 24.95 8.2 46.8 28 -9 15.7
12:45 1015 29.97 845 24.95 8.8 47.8 27 -9.4 15.1
12:50 1015 29.97 844 24.92 9.4 48.9 25 -9.5 14.9
12:55 1015 29.97 844 24.92 9.2 48.5 26 -9.6 14.7
13:00 1015 29.97 844 24.92 9 48.3 26 -9.3 15.2
13:05 1015 29.97 844 24.92 9 48.1 25 -10 13.9
13:10 1015 29.97 844 24.92 9 48.1 25 -10 13.9
13:15 1015 29.97 844 24.92 8.7 47.7 25 -10.2 13.6
13:20 1015 29.97 844 24.92 9.2 48.5 25 -9.9 14.2
13:25 1015 29.97 844 24.92 9.1 48.3 26 -9.6 14.8
13:30 1015 29.97 844 24.92 9.1 48.4 25 -9.7 14.5
13:35 1015 29.97 844 24.92 9.2 48.5 26 -9.5 14.9
13:40 1015 29.97 844 24.92 9.3 48.8 25 -9.9 14.2
13:45 1014 29.94 844 24.92 9.1 48.3 26 -9.3 15.2
13:50 1014 29.94 844 24.92 9 48.3 26 -9.4 15.1
13:55 1015 29.97 844 24.92 9.4 48.9 27 -8.8 16.2
14:00 1015 29.97 844 24.92 9.1 48.5 27 -8.7 16.4
14:05 1015 29.97 844 24.92 9.4 49 27 -8.7 16.3
14:10 1014 29.94 844 24.92 9.7 49.4 26 -8.8 16.2
14:15 1014 29.94 844 24.92 9.7 49.5 27 -8.4 16.9
14:20 1014 29.94 844 24.92 9.7 49.5 26 -8.7 16.4
14:25 1014 29.94 844 24.92 9.7 49.4 27 -8.7 16.4
14:30 1014 29.94 844 24.92 9.7 49.5 27 -8.6 16.5
14:35 1014 29.94 844 24.92 9.6 49.3 27 -8.4 16.9
14:40 1014 29.94 844 24.92 9.6 49.3 27 -8.4 16.9
14:45 1014 29.94 844 24.92 9.4 48.9 28 -8.3 17.1
14:50 1014 29.94 844 24.92 9.3 48.8 28 -8 17.5
14:55 1014 29.94 844 24.92 9.2 48.5 28 -8.4 16.8
15:00 1014 29.94 844 24.92 9.1 48.4 28 -8.4 16.9
15:05 1014 29.94 843 24.89 9 48.2 28 -8.3 17
15:10 1014 29.94 843 24.89 8.7 47.6 29 -8.4 16.9
15:15 1014 29.94 843 24.89 8.8 47.9 28 -8.5 16.6
15:20 1014 29.94 843 24.89 8.8 47.9 28 -8.6 16.6
15:25 1014 29.94 843 24.89 8.6 47.4 29 -8.6 16.6
15:30 1014 29.94 843 24.89 8.5 47.3 28 -8.8 16.1
15:35 1014 29.94 843 24.89 8.6 47.4 28 -8.8 16.1
15:40 1014 29.94 843 24.89 8.7 47.6 28 -8.8 16.2
15:45 1014 29.94 843 24.89 8.7 47.7 28 -9 15.9
15:50 1014 29.94 843 24.89 8.7 47.7 28 -8.8 16.2
15:55 1014 29.94 843 24.89 8.7 47.7 29 -8.5 16.6
16:00 1014 29.94 843 24.89 8.7 47.6 29 -8.4 16.9
16:05 1014 29.94 843 24.89 8.6 47.4 32 -7.1 19.1
16:10 1014 29.94 843 24.89 8 46.4 34 -7 19.5
16:15 1014 29.94 843 24.89 7.9 46.1 34 -7.2 19.1
16:20 1014 29.94 843 24.89 7.7 45.9 34 -7.2 19.1
16:25 1014 29.94 843 24.89 7.8 46 33 -7.4 18.7
16:30 1014 29.94 843 24.89 7.9 46.2 33 -7.3 18.9
16:35 1013 29.91 843 24.89 7.9 46.3 33 -7.6 18.4
16:40 1013 29.91 843 24.89 7.9 46.3 32 -8 17.7
16:45 1013 29.91 843 24.89 8.1 46.5 30 -8.7 16.4
16:50 1013 29.91 842 24.86 8.6 47.4 30 -8.2 17.2
16:55 1013 29.91 842 24.86 8.8 47.8 29 -8.5 16.8
17:00 1013 29.91 842 24.86 9.4 49 27 -8.4 16.9
17:05 1013 29.91 842 24.86 9.3 48.8 31 -6.7 19.9
17:10 1013 29.91 842 24.86 8.5 47.4 32 -7.1 19.2
17:15 1013 29.91 842 24.86 8.1 46.5 33 -7.3 18.8
17:20 1013 29.91 842 24.86 7.8 46 33 -7.4 18.7
17:25 1013 29.91 842 24.86 8.1 46.5 30 -8.3 17
17:30 1013 29.91 842 24.86 8.6 47.5 31 -7.6 18.4
17:35 1013 29.91 842 24.86 8.3 46.9 29 -8.6 16.5
17:40 1013 29.91 842 24.86 8.8 47.8 28 -8.6 16.4
17:45 1013 29.91 842 24.86 9.1 48.4 27 -8.8 16.1
17:50 1013 29.91 842 24.86 9.2 48.5 27 -8.9 16
17:55 1013 29.91 842 24.86 9.1 48.3 27 -8.9 16
18:00 1013 29.91 842 24.86 9 48.2 27 -9 15.8
18:05 1013 29.91 842 24.86 8.8 47.9 28 -8.8 16.2
18:10 1013 29.91 842 24.86 8.5 47.4 28 -8.9 16
18:15 1013 29.91 842 24.86 8.5 47.2 28 -9.2 15.5
18:20 1013 29.91 842 24.86 8.5 47.4 27 -9.3 15.2
18:25 1013 29.91 842 24.86 8.7 47.7 26 -9.7 14.6
18:30 1013 29.91 842 24.86 8.8 47.9 26 -9.8 14.3
18:35 1013 29.91 842 24.86 9 48.1 25 -10.1 13.8
18:40 1013 29.91 842 24.86 9.2 48.6 24 -10.1 13.8
18:45 1013 29.91 842 24.86 9.2 48.6 24 -10.2 13.6
18:50 1013 29.91 842 24.86 9.2 48.5 25 -10.1 13.9
18:55 1013 29.91 842 24.86 9 48.1 25 -10.2 13.6
19:00 1013 29.91 842 24.86 9 48.2 25 -10.1 13.8
19:05 1013 29.91 842 24.86 8.8 47.9 25 -10.1 13.8
19:10 1013 29.91 842 24.86 8.7 47.7 25 -10.2 13.6
19:15 1013 29.91 842 24.86 8.6 47.5 25 -10.2 13.6
19:20 1013 29.91 842 24.86 8.8 47.8 25 -10.3 13.4
19:25 1013 29.91 842 24.86 8.8 47.8 25 -10.2 13.6
19:30 1013 29.91 842 24.86 8.7 47.7 25 -10.1 13.8
19:35 1013 29.91 842 24.86 8.6 47.5 25 -10.2 13.6
19:40 1013 29.91 842 24.86 8.5 47.3 26 -9.8 14.4
19:45 1013 29.91 842 24.86 8.3 46.9 26 -10 14
19:50 1013 29.91 842 24.86 8.3 47 26 -9.9 14.1
19:55 1013 29.91 842 24.86 8.3 47 26 -10 14
20:00 1013 29.91 842 24.86 8.3 47 26 -9.9 14.3
20:05 1013 29.91 842 24.86 8 46.5 29 -9.1 15.7
20:10 1012 29.88 842 24.86 7.3 45.1 30 -9 15.8
20:15 1012 29.88 842 24.86 6.4 43.5 32 -9.2 15.4
20:20 1012 29.88 842 24.86 6.2 43.2 31 -9.5 14.8
20:25 1012 29.88 841 24.83 6.6 43.9 30 -9.6 14.7
20:30 1012 29.88 841 24.83 7.1 44.8 29 -9.6 14.8
20:35 1012 29.88 841 24.83 7.1 44.8 31 -9 15.7
20:40 1012 29.88 841 24.83 6.5 43.7 32 -8.9 15.9
20:45 1012 29.88 841 24.83 5.7 42.2 33 -9.3 15.3
20:50 1012 29.88 841 24.83 5.6 42 34 -9.3 15.3
20:55 1012 29.88 841 24.83 5.3 41.5 34 -9.5 15
21:00 1012 29.88 841 24.83 5.2 41.4 34 -9.4 15.1
21:05 1012 29.88 841 24.83 5.1 41.1 35 -9.1 15.6
21:10 1012 29.88 841 24.83 4.7 40.4 36 -9.1 15.6
21:15 1012 29.88 841 24.83 4.7 40.4 36 -9.2 15.5
21:20 1012 29.88 841 24.83 4.6 40.2 37 -8.8 16.2
21:25 1012 29.88 841 24.83 4.5 40 35 -9.6 14.8
21:30 1012 29.88 841 24.83 4.8 40.7 35 -9.5 14.9
21:35 1012 29.88 841 24.83 4.9 40.9 34 -9.5 14.9
21:40 1012 29.88 841 24.83 5 41 35 -9.3 15.2
21:45 1012 29.88 841 24.83 5 41.1 35 -9.2 15.4
21:50 1012 29.88 841 24.83 4.8 40.7 36 -9.1 15.6
21:55 1012 29.88 841 24.83 4.4 39.9 36 -9.3 15.2
22:00 1012 29.88 841 24.83 4.6 40.3 36 -9.3 15.3
22:05 1012 29.88 841 24.83 4.7 40.4 36 -9 15.8
22:10 1012 29.88 841 24.83 4.9 40.9 35 -9.2 15.4
22:15 1012 29.88 841 24.83 4.7 40.5 38 -8.6 16.6
22:20 1012 29.88 841 24.83 4.4 40 37 -9.2 15.5
22:25 1012 29.88 841 24.83 4.6 40.3 37 -9 15.9
22:30 1012 29.88 841 24.83 4.5 40.1 36 -9.3 15.3
22:35 1012 29.88 841 24.83 4.3 39.7 39 -8.5 16.7
22:40 1011 29.85 841 24.83 4 39.2 40 -8.4 16.8
22:45 1011 29.85 841 24.83 4.7 40.4 34 -9.8 14.4
22:50 1011 29.85 841 24.83 5.3 41.5 39 -7.7 18.1
22:55 1011 29.85 841 24.83 4.3 39.8 40 -8.1 17.4
23:00 1011 29.85 840 24.81 4 39.2 40 -8.6 16.6
23:05 1011 29.85 840 24.81 3.8 38.9 42 -8 17.7
23:10 1011 29.85 840 24.81 3.6 38.5 41 -8.4 16.8
23:15 1011 29.85 840 24.81 3.4 38 44 -7.7 18.1
23:20 1011 29.85 840 24.81 3.4 38.1 43 -8.1 17.4
23:25 1011 29.85 840 24.81 3.7 38.6 41 -8.5 16.6
23:30 1011 29.85 840 24.81 4.1 39.4 38 -9.1 15.6
23:35 1011 29.85 840 24.81 4.6 40.4 38 -8.6 16.5
23:40 1011 29.85 840 24.81 4.7 40.4 38 -8.5 16.6
23:45 1011 29.85 840 24.81 4.6 40.3 38 -8.5 16.8
23:50 1011 29.85 840 24.81 4.6 40.2 38 -8.5 16.6
23:55 1011 29.85 840 24.81 4.6 40.3 38 -8.5 16.7
24:00 1011 29.85 840 24.81 4.6 40.3 38 -8.4 16.8